createdAt,value
2023-03-01T00:03:57.959Z,15.30
2023-03-01T00:08:00.348Z,20.33
2023-03-01T00:12:02.501Z,19.23
2023-03-01T00:16:08.020Z,14.97
2023-03-01T00:20:10.463Z,23.30
2023-03-01T00:24:12.984Z,20.67
2023-03-01T00:28:15.458Z,17.17
2023-03-01T00:32:17.662Z,16.43
2023-03-01T00:36:19.789Z,19.07
2023-03-01T00:40:21.952Z,12.93
2023-03-01T00:44:24.118Z,13.80
2023-03-01T00:48:26.276Z,16.90
2023-03-01T00:52:28.477Z,16.73
2023-03-01T00:56:31.499Z,17.80
2023-03-01T01:00:33.973Z,12.07
2023-03-01T01:04:36.125Z,9.93
2023-03-01T01:08:39.613Z,11.83
2023-03-01T01:12:41.760Z,12.57
2023-03-01T01:16:43.982Z,10.30
2023-03-01T01:20:46.136Z,12.60
2023-03-01T01:24:48.342Z,9.57
2023-03-01T01:28:50.763Z,11.13
2023-03-01T01:32:52.906Z,10.67
2023-03-01T01:36:55.488Z,11.93
2023-03-01T01:40:57.807Z,8.23
2023-03-01T01:45:18.825Z,9.60
2023-03-01T01:49:24.602Z,8.33
2023-03-01T01:53:27.279Z,9.53
2023-03-01T01:57:33.396Z,8.83
2023-03-01T02:01:35.566Z,10.83
2023-03-01T02:05:47.226Z,6.17
2023-03-01T02:09:54.015Z,9.63
2023-03-01T02:13:56.423Z,6.90
2023-03-01T02:17:58.645Z,8.13
2023-03-01T02:22:07.909Z,7.93
2023-03-01T02:26:16.919Z,8.10
2023-03-01T02:30:20.407Z,7.43
2023-03-01T02:34:23.907Z,8.87
2023-03-01T02:38:26.340Z,8.37
2023-03-01T02:42:33.243Z,8.63
2023-03-01T02:46:35.551Z,7.10
2023-03-01T02:50:46.731Z,8.67
2023-03-01T02:54:52.306Z,8.03
2023-03-01T02:58:54.468Z,7.73
2023-03-01T03:02:57.000Z,9.23
2023-03-01T03:07:00.101Z,9.00
2023-03-01T03:11:02.293Z,9.60
2023-03-01T03:15:05.458Z,7.90
2023-03-01T03:19:07.589Z,7.93
2023-03-01T03:23:09.873Z,6.63
2023-03-01T03:27:12.048Z,6.27
2023-03-01T03:31:14.183Z,9.27
2023-03-01T03:35:17.261Z,6.97
2023-03-01T03:39:20.688Z,8.03
2023-03-01T03:43:24.542Z,8.67
2023-03-01T03:47:26.799Z,8.33
2023-03-01T03:51:28.928Z,7.73
2023-03-01T03:55:31.141Z,9.30
2023-03-01T03:59:33.331Z,7.67
2023-03-01T04:03:35.607Z,10.30
2023-03-01T04:07:38.288Z,9.03
2023-03-01T04:11:40.479Z,9.83
2023-03-01T04:15:42.731Z,11.83
2023-03-01T04:19:44.844Z,8.47
2023-03-01T04:23:47.000Z,11.30
2023-03-01T04:27:49.157Z,8.53
2023-03-01T04:31:51.373Z,11.83
2023-03-01T04:35:53.793Z,10.60
2023-03-01T04:39:56.022Z,8.40
2023-03-01T04:43:58.182Z,9.23
2023-03-01T04:48:00.320Z,10.93
2023-03-01T04:52:02.493Z,10.37
2023-03-01T04:56:04.808Z,9.13
2023-03-01T05:00:08.185Z,11.83
2023-03-01T05:04:10.332Z,13.23
2023-03-01T05:08:12.678Z,11.83
2023-03-01T05:12:15.332Z,11.17
2023-03-01T05:16:17.546Z,11.53
2023-03-01T05:20:19.888Z,14.87
2023-03-01T05:24:22.016Z,10.03
2023-03-01T05:28:24.209Z,12.37
2023-03-01T05:32:26.467Z,13.00
